createdAt,value
2022-12-11T00:00:41.087Z,7.57
2022-12-11T00:03:15.906Z,6.57
2022-12-11T00:05:43.851Z,6.18
2022-12-11T00:08:11.230Z,7.15
2022-12-11T00:10:40.428Z,6.20
2022-12-11T00:13:06.999Z,6.55
2022-12-11T00:15:33.509Z,6.93
2022-12-11T00:18:00.165Z,6.70
2022-12-11T00:20:27.191Z,6.88
2022-12-11T00:22:56.146Z,7.37
2022-12-11T00:25:22.660Z,7.47
2022-12-11T00:27:53.944Z,8.27
2022-12-11T00:30:20.455Z,8.00
2022-12-11T00:32:49.978Z,7.95
2022-12-11T00:35:18.976Z,7.47
2022-12-11T00:37:47.979Z,6.90
2022-12-11T00:40:14.544Z,7.68
2022-12-11T00:42:43.312Z,7.88
2022-12-11T00:45:10.527Z,7.35
2022-12-11T00:47:42.143Z,6.60
2022-12-11T00:50:09.362Z,7.60
2022-12-11T00:52:38.856Z,6.47
2022-12-11T00:55:10.484Z,6.65
2022-12-11T00:57:37.334Z,6.05
2022-12-11T01:00:08.874Z,6.37
2022-12-11T01:02:35.425Z,6.00
2022-12-11T01:05:04.506Z,6.03
2022-12-11T01:07:31.075Z,5.53
2022-12-11T01:10:16.162Z,5.40
2022-12-11T01:12:45.067Z,5.77
2022-12-11T01:15:12.394Z,5.72
2022-12-11T01:17:40.025Z,5.53
2022-12-11T01:20:10.030Z,5.70
2022-12-11T01:22:36.566Z,5.80
2022-12-11T01:25:03.502Z,6.33
2022-12-11T01:27:30.023Z,5.10
2022-12-11T01:29:58.918Z,5.32
2022-12-11T01:32:27.817Z,5.80
2022-12-11T01:34:59.234Z,4.75
2022-12-11T01:37:28.297Z,4.70
2022-12-11T01:39:57.569Z,5.15
2022-12-11T01:42:25.220Z,5.80
2022-12-11T01:44:54.522Z,5.88
2022-12-11T01:47:25.946Z,5.25
2022-12-11T01:49:52.504Z,5.97
2022-12-11T01:52:22.195Z,5.65
2022-12-11T01:54:51.475Z,5.75
2022-12-11T01:57:20.217Z,6.07
2022-12-11T01:59:47.283Z,5.85
2022-12-11T02:02:26.314Z,6.37
2022-12-11T02:04:55.242Z,5.60
2022-12-11T02:07:22.180Z,5.57
2022-12-11T02:09:52.227Z,5.20
2022-12-11T02:12:24.766Z,6.15
2022-12-11T02:15:05.403Z,6.40
2022-12-11T02:17:51.125Z,5.10
2022-12-11T02:20:40.765Z,5.60
2022-12-11T02:23:13.290Z,5.25
2022-12-11T02:26:17.042Z,5.22
2022-12-11T02:28:53.475Z,5.87
2022-12-11T02:31:41.488Z,3.92
2022-12-11T02:34:32.740Z,4.75
2022-12-11T02:37:04.335Z,4.43
2022-12-11T02:39:33.737Z,4.32
2022-12-11T02:42:04.382Z,4.73
2022-12-11T02:44:37.164Z,4.50
2022-12-11T02:47:07.342Z,3.60
2022-12-11T02:49:34.189Z,3.40
2022-12-11T02:52:06.020Z,3.83
2022-12-11T02:54:39.842Z,4.13
2022-12-11T02:57:11.949Z,4.50
2022-12-11T02:59:44.156Z,5.78
2022-12-11T03:02:15.572Z,5.35
2022-12-11T03:04:45.430Z,5.03
2022-12-11T03:07:23.600Z,5.30
2022-12-11T03:09:51.067Z,5.22
2022-12-11T03:12:22.710Z,5.38
2022-12-11T03:14:50.325Z,5.55
2022-12-11T03:17:24.484Z,6.05
2022-12-11T03:20:21.527Z,5.57
2022-12-11T03:22:59.119Z,4.53
2022-12-11T03:25:54.754Z,5.93
2022-12-11T03:28:25.521Z,6.32
2022-12-11T03:30:56.567Z,6.10
2022-12-11T03:33:36.561Z,5.87
2022-12-11T03:36:07.721Z,5.97
2022-12-11T03:38:49.337Z,6.50
2022-12-11T03:41:19.265Z,6.15
2022-12-11T03:43:47.215Z,6.40
2022-12-11T03:46:16.111Z,5.67
2022-12-11T03:48:47.672Z,6.22
2022-12-11T03:51:17.168Z,7.38
2022-12-11T03:53:49.944Z,6.32
2022-12-11T03:56:23.967Z,5.78
2022-12-11T03:58:50.665Z,6.33
2022-12-11T04:01:17.288Z,5.78
2022-12-11T04:03:43.857Z,6.20
2022-12-11T04:06:10.387Z,6.25
2022-12-11T04:08:36.913Z,5.63
2022-12-11T04:11:23.406Z,5.57
2022-12-11T04:14:09.896Z,5.75
2022-12-11T04:16:38.759Z,4.88
2022-12-11T04:19:24.471Z,5.32
2022-12-11T04:22:09.508Z,5.22
2022-12-11T04:24:38.357Z,6.37
2022-12-11T04:27:07.252Z,6.20
2022-12-11T04:29:38.899Z,6.38
2022-12-11T04:32:05.551Z,5.82
2022-12-11T04:34:34.187Z,5.70
2022-12-11T04:37:00.727Z,6.10
2022-12-11T04:39:31.880Z,6.00
2022-12-11T04:41:58.405Z,5.53
2022-12-11T04:44:24.937Z,4.55
2022-12-11T04:46:51.516Z,5.20
2022-12-11T04:49:20.427Z,4.60
2022-12-11T04:51:49.357Z,4.80
2022-12-11T04:54:15.913Z,4.32
2022-12-11T04:56:45.390Z,3.90
2022-12-11T04:59:11.936Z,4.05
2022-12-11T05:01:38.629Z,4.23
2022-12-11T05:04:10.088Z,4.70
2022-12-11T05:06:39.114Z,3.42
2022-12-11T05:09:08.880Z,4.95
2022-12-11T05:11:36.409Z,5.07
2022-12-11T05:14:02.984Z,3.90
2022-12-11T05:16:34.341Z,4.18
2022-12-11T05:19:03.432Z,3.97
2022-12-11T05:21:34.860Z,4.30
2022-12-11T05:24:04.470Z,4.13
2022-12-11T05:26:33.298Z,4.63
2022-12-11T05:29:05.520Z,4.90
2022-12-11T05:31:32.304Z,4.68
2022-12-11T05:34:01.084Z,3.92
2022-12-11T05:36:32.667Z,3.92
2022-12-11T05:39:00.809Z,5.30
2022-12-11T05:41:30.230Z,4.57
2022-12-11T05:43:56.862Z,5.28
2022-12-11T05:46:26.166Z,4.00
2022-12-11T05:48:55.559Z,5.07
2022-12-11T05:51:22.269Z,5.63
2022-12-11T05:53:51.111Z,5.50
2022-12-11T05:56:22.966Z,4.45
2022-12-11T05:58:50.285Z,4.32
2022-12-11T06:01:20.786Z,4.53
2022-12-11T06:03:47.908Z,5.17
2022-12-11T06:06:17.183Z,4.07
2022-12-11T06:08:45.891Z,4.70
2022-12-11T06:11:15.644Z,4.05
2022-12-11T06:13:43.889Z,4.22
2022-12-11T06:16:10.768Z,4.73
2022-12-11T06:18:42.989Z,4.18
2022-12-11T06:21:14.194Z,4.85
2022-12-11T06:23:41.731Z,3.88
2022-12-11T06:26:09.121Z,4.22
2022-12-11T06:28:35.838Z,3.73
2022-12-11T06:31:08.428Z,4.10
2022-12-11T06:33:35.920Z,5.15
2022-12-11T06:36:19.990Z,5.97
2022-12-11T06:38:47.803Z,6.38
2022-12-11T06:41:14.799Z,5.30
2022-12-11T06:43:42.939Z,4.68
2022-12-11T06:46:15.563Z,4.65
2022-12-11T06:48:45.424Z,5.55
2022-12-11T06:51:18.298Z,4.40
2022-12-11T06:53:47.592Z,4.97
2022-12-11T06:56:18.896Z,4.40
2022-12-11T06:58:47.862Z,4.97
2022-12-11T07:01:26.047Z,4.20
2022-12-11T07:03:57.505Z,4.95
2022-12-11T07:06:25.973Z,5.03
2022-12-11T07:08:56.243Z,4.28
2022-12-11T07:11:30.073Z,3.70
2022-12-11T07:14:01.632Z,4.57
2022-12-11T07:16:30.389Z,4.95
2022-12-11T07:18:56.935Z,4.13
2022-12-11T07:21:25.958Z,5.25
2022-12-11T07:23:52.495Z,4.97
2022-12-11T07:26:21.048Z,4.18
2022-12-11T07:28:47.696Z,3.22
2022-12-11T07:31:18.527Z,3.70
2022-12-11T07:33:48.620Z,4.68
2022-12-11T07:36:17.670Z,4.18
2022-12-11T07:38:47.203Z,4.25
2022-12-11T07:41:15.494Z,3.90
2022-12-11T07:43:45.460Z,4.87
2022-12-11T07:46:21.245Z,5.35
2022-12-11T07:48:50.863Z,5.03
2022-12-11T07:51:22.866Z,5.10
2022-12-11T07:53:50.674Z,4.57
2022-12-11T07:56:20.862Z,4.47
2022-12-11T07:58:50.421Z,4.72
2022-12-11T08:01:20.072Z,4.97
2022-12-11T08:03:47.031Z,4.75
2022-12-11T08:06:14.120Z,5.30
2022-12-11T08:08:44.277Z,5.57
2022-12-11T08:11:15.340Z,5.85
2022-12-11T08:13:44.697Z,5.32
2022-12-11T08:16:14.453Z,5.93
2022-12-11T08:18:44.575Z,6.72
2022-12-11T08:21:16.966Z,5.97
2022-12-11T08:23:44.036Z,6.55
2022-12-11T08:26:17.045Z,6.15
2022-12-11T08:28:44.669Z,6.47
2022-12-11T08:31:15.841Z,6.97
2022-12-11T08:33:42.744Z,6.07
2022-12-11T08:36:12.038Z,6.53
2022-12-11T08:38:43.360Z,7.40
2022-12-11T08:41:24.106Z,6.57
2022-12-11T08:43:55.284Z,6.38
2022-12-11T08:46:29.907Z,6.93
2022-12-11T08:48:57.107Z,7.43
2022-12-11T08:51:30.896Z,7.97
2022-12-11T08:54:00.094Z,8.68
2022-12-11T08:56:29.941Z,8.18
2022-12-11T08:58:59.129Z,6.67
2022-12-11T09:01:28.889Z,7.03
2022-12-11T09:03:57.174Z,6.43
2022-12-11T09:06:26.477Z,6.93
2022-12-11T09:08:53.833Z,7.00
2022-12-11T09:11:29.401Z,6.67
2022-12-11T09:13:56.080Z,7.53
2022-12-11T09:16:24.591Z,7.43
2022-12-11T09:18:56.041Z,7.88
2022-12-11T09:21:25.816Z,6.50
2022-12-11T09:24:00.017Z,6.47
2022-12-11T09:26:32.402Z,8.02
2022-12-11T09:29:03.498Z,8.75
2022-12-11T09:31:33.199Z,8.00
2022-12-11T09:34:02.912Z,7.75
2022-12-11T09:36:32.507Z,7.40
2022-12-11T09:39:07.100Z,7.78
2022-12-11T09:41:42.762Z,7.45
2022-12-11T09:44:20.127Z,7.72
2022-12-11T09:46:47.513Z,7.65
2022-12-11T09:49:28.870Z,7.17
2022-12-11T09:52:23.648Z,7.05
2022-12-11T09:54:57.762Z,6.68
2022-12-11T09:57:43.146Z,6.45
2022-12-11T10:00:24.755Z,6.93
2022-12-11T10:02:56.791Z,6.47
2022-12-11T10:05:52.601Z,8.05
2022-12-11T10:08:38.522Z,7.80
2022-12-11T10:11:29.832Z,6.75
2022-12-11T10:13:59.334Z,7.13
2022-12-11T10:16:46.231Z,7.20
2022-12-11T10:19:28.995Z,7.20
2022-12-11T10:21:56.659Z,6.70
2022-12-11T10:25:09.893Z,5.80
2022-12-11T10:27:38.370Z,7.05
2022-12-11T10:30:30.399Z,6.67
2022-12-11T10:33:21.619Z,6.90
2022-12-11T10:35:48.167Z,6.95
2022-12-11T10:38:17.382Z,6.15
2022-12-11T10:40:55.853Z,6.80
2022-12-11T10:43:33.557Z,7.20
2022-12-11T10:46:00.245Z,7.03
2022-12-11T10:48:29.182Z,6.28
2022-12-11T10:51:00.123Z,6.70
2022-12-11T10:53:30.473Z,6.82
2022-12-11T10:55:58.637Z,7.27
2022-12-11T10:58:34.243Z,6.38
2022-12-11T11:01:24.695Z,7.03
2022-12-11T11:04:06.999Z,6.82
2022-12-11T11:06:34.119Z,6.90
2022-12-11T11:09:01.789Z,7.17
2022-12-11T11:11:34.007Z,7.00
2022-12-11T11:14:21.128Z,7.05
2022-12-11T11:16:52.522Z,6.32
2022-12-11T11:19:28.467Z,6.95
2022-12-11T11:22:16.559Z,8.00
2022-12-11T11:24:55.868Z,6.40
2022-12-11T11:27:37.088Z,5.80
2022-12-11T11:30:08.393Z,6.47
2022-12-11T11:32:38.841Z,6.75
2022-12-11T11:35:18.970Z,6.93
2022-12-11T11:37:53.654Z,7.35
2022-12-11T11:40:27.475Z,6.53
2022-12-11T11:43:16.075Z,6.88
2022-12-11T11:45:51.848Z,6.53
2022-12-11T11:48:52.055Z,6.33
2022-12-11T11:51:33.861Z,7.18
2022-12-11T11:54:05.685Z,6.38
2022-12-11T11:56:38.843Z,6.35
2022-12-11T11:59:05.374Z,6.07
2022-12-11T12:01:34.104Z,6.10
2022-12-11T12:04:02.594Z,6.57
2022-12-11T12:07:04.448Z,6.57
2022-12-11T12:09:41.539Z,6.15
2022-12-11T12:12:28.552Z,6.90
2022-12-11T12:15:09.775Z,7.80
2022-12-11T12:17:55.767Z,7.10
2022-12-11T12:20:43.243Z,8.52
2022-12-11T12:23:18.624Z,6.15
2022-12-11T12:26:17.175Z,7.30
2022-12-11T12:29:04.380Z,6.27
2022-12-11T12:31:52.412Z,5.97
2022-12-11T12:34:43.586Z,6.65
2022-12-11T12:37:44.043Z,6.55
2022-12-11T12:40:29.361Z,7.50
2022-12-11T12:43:14.731Z,6.53
2022-12-11T12:46:10.716Z,7.63
2022-12-11T12:48:42.371Z,6.57
2022-12-11T12:51:15.045Z,6.75
2022-12-11T12:53:49.910Z,7.28
2022-12-11T12:56:19.678Z,6.93
2022-12-11T12:58:46.465Z,7.65
2022-12-11T13:01:13.019Z,9.02
2022-12-11T13:03:50.973Z,7.45
2022-12-11T13:06:30.512Z,4.88
2022-12-11T13:08:57.985Z,7.53
2022-12-11T13:11:36.365Z,8.90
2022-12-11T13:14:04.770Z,8.63
2022-12-11T13:16:44.639Z,7.15
2022-12-11T13:19:42.267Z,8.95
2022-12-11T13:22:12.341Z,6.07
2022-12-11T13:25:02.189Z,7.53
2022-12-11T13:27:34.727Z,8.25
2022-12-11T13:30:25.468Z,7.65
2022-12-11T13:33:17.886Z,7.03
2022-12-11T13:35:47.929Z,7.37
2022-12-11T13:38:20.823Z,8.35
2022-12-11T13:40:56.898Z,7.70
2022-12-11T13:43:30.208Z,8.00
2022-12-11T13:46:21.117Z,7.43
2022-12-11T13:48:54.253Z,7.50
2022-12-11T13:51:24.370Z,8.00
2022-12-11T13:54:03.601Z,6.50
2022-12-11T13:56:30.276Z,8.60
2022-12-11T13:58:56.819Z,8.35
2022-12-11T14:01:32.146Z,9.50
2022-12-11T14:04:07.588Z,7.95
2022-12-11T14:06:35.750Z,7.35
2022-12-11T14:09:05.707Z,8.25
2022-12-11T14:11:46.076Z,8.48
2022-12-11T14:14:22.401Z,7.80
2022-12-11T14:16:53.827Z,9.88
2022-12-11T14:19:24.863Z,8.45
2022-12-11T14:22:22.265Z,9.05
2022-12-11T14:24:51.745Z,7.57
2022-12-11T14:27:21.647Z,8.43
2022-12-11T14:29:49.371Z,8.77
2022-12-11T14:32:43.328Z,7.88
2022-12-11T14:35:25.528Z,7.18
2022-12-11T14:37:55.663Z,6.35
2022-12-11T14:40:28.454Z,8.97
2022-12-11T14:43:19.812Z,7.20
2022-12-11T14:45:53.180Z,7.10
2022-12-11T14:48:27.064Z,7.65
2022-12-11T14:50:57.903Z,8.65
2022-12-11T14:53:31.501Z,7.87
2022-12-11T14:56:02.436Z,7.35
2022-12-11T14:58:32.453Z,7.25
2022-12-11T15:01:02.067Z,7.80
2022-12-11T15:03:39.285Z,7.53
2022-12-11T15:06:43.985Z,7.83
2022-12-11T15:09:20.110Z,7.25
2022-12-11T15:11:49.123Z,7.43
2022-12-11T15:14:19.335Z,6.90
2022-12-11T15:16:47.818Z,7.55
2022-12-11T15:19:26.624Z,7.20
2022-12-11T15:21:55.975Z,6.55
2022-12-11T15:24:38.903Z,7.25
2022-12-11T15:27:06.295Z,7.75
2022-12-11T15:29:40.256Z,7.85
2022-12-11T15:32:09.942Z,7.57
2022-12-11T15:34:53.440Z,8.27
2022-12-11T15:37:33.868Z,8.15
2022-12-11T15:40:02.382Z,9.23
2022-12-11T15:42:32.075Z,8.27
2022-12-11T15:44:59.906Z,8.20
2022-12-11T15:47:31.134Z,8.70
2022-12-11T15:50:07.433Z,7.60
2022-12-11T15:52:36.240Z,8.32
2022-12-11T15:55:06.682Z,8.63
2022-12-11T15:57:33.259Z,8.03
2022-12-11T15:59:59.972Z,8.68
2022-12-11T16:02:29.100Z,8.75
2022-12-11T16:04:55.668Z,7.43
2022-12-11T16:07:24.924Z,7.53
2022-12-11T16:09:52.781Z,7.00
2022-12-11T16:12:22.130Z,8.88
2022-12-11T16:14:51.161Z,7.50
2022-12-11T16:17:25.026Z,8.60
2022-12-11T16:19:54.308Z,8.15
2022-12-11T16:22:23.436Z,6.97
2022-12-11T16:24:56.632Z,9.15
2022-12-11T16:27:23.856Z,7.93
2022-12-11T16:29:52.482Z,7.63
2022-12-11T16:32:19.810Z,7.72
2022-12-11T16:34:46.444Z,6.17
2022-12-11T16:37:14.149Z,6.68
2022-12-11T16:39:42.616Z,6.55
2022-12-11T16:42:09.149Z,6.82
2022-12-11T16:44:38.421Z,6.85
2022-12-11T16:47:11.248Z,6.37
2022-12-11T16:49:37.795Z,6.60
2022-12-11T16:52:07.499Z,6.93
2022-12-11T16:54:38.947Z,6.25
2022-12-11T16:57:05.532Z,6.22
2022-12-11T16:59:37.453Z,6.70
2022-12-11T17:02:06.745Z,7.85
2022-12-11T17:04:33.287Z,7.18
2022-12-11T17:07:06.908Z,7.95
2022-12-11T17:09:35.156Z,7.57
2022-12-11T17:12:05.141Z,6.40
2022-12-11T17:14:34.503Z,6.53
2022-12-11T17:17:01.044Z,5.60
2022-12-11T17:19:32.044Z,7.43
2022-12-11T17:21:59.082Z,6.57
2022-12-11T17:24:30.411Z,6.27
2022-12-11T17:26:57.037Z,6.95
2022-12-11T17:29:23.658Z,7.07
2022-12-11T17:31:50.246Z,7.28
2022-12-11T17:34:19.217Z,6.90
2022-12-11T17:36:48.382Z,7.30
2022-12-11T17:39:14.962Z,6.53
2022-12-11T17:41:43.717Z,7.30
2022-12-11T17:44:10.530Z,6.25
2022-12-11T17:46:42.048Z,7.18
2022-12-11T17:49:09.790Z,6.67
2022-12-11T17:51:36.629Z,6.85
2022-12-11T17:54:03.319Z,6.55
2022-12-11T17:56:29.826Z,7.22
2022-12-11T17:58:58.612Z,7.00
2022-12-11T18:01:27.453Z,7.37
2022-12-11T18:03:54.141Z,6.57
2022-12-11T18:06:23.178Z,7.47
2022-12-11T18:08:52.119Z,8.65
2022-12-11T18:11:22.108Z,7.75
2022-12-11T18:13:52.665Z,7.83
2022-12-11T18:16:27.869Z,7.13
2022-12-11T18:18:54.586Z,6.68
2022-12-11T18:21:24.030Z,7.45
2022-12-11T18:23:55.939Z,8.13
2022-12-11T18:26:27.767Z,7.80
2022-12-11T18:28:56.868Z,6.90
2022-12-11T18:31:29.271Z,7.10
2022-12-11T18:34:01.045Z,6.78
2022-12-11T18:36:30.815Z,6.70
2022-12-11T18:38:57.599Z,6.30
2022-12-11T18:41:27.023Z,6.05
2022-12-11T18:43:56.045Z,7.97
2022-12-11T18:46:22.724Z,8.98
2022-12-11T18:48:51.909Z,8.32
2022-12-11T18:51:24.838Z,7.57
2022-12-11T18:53:52.453Z,7.57
2022-12-11T18:56:22.325Z,7.63
2022-12-11T18:58:49.353Z,6.82
2022-12-11T19:01:20.434Z,6.82
2022-12-11T19:03:47.884Z,6.37
2022-12-11T19:06:18.053Z,6.82
2022-12-11T19:08:45.141Z,7.53
2022-12-11T19:11:19.359Z,6.57
2022-12-11T19:13:49.332Z,6.47
2022-12-11T19:16:29.785Z,7.10
2022-12-11T19:18:58.901Z,8.75
2022-12-11T19:21:25.551Z,8.00
2022-12-11T19:23:52.107Z,6.80
2022-12-11T19:26:21.127Z,7.32
2022-12-11T19:28:48.797Z,7.40
2022-12-11T19:31:18.188Z,8.45
2022-12-11T19:33:47.144Z,9.43
2022-12-11T19:36:17.115Z,7.72
2022-12-11T19:38:47.197Z,9.10
2022-12-11T19:41:22.223Z,10.07
2022-12-11T19:43:50.399Z,9.98
2022-12-11T19:46:18.006Z,10.00
2022-12-11T19:48:45.089Z,8.43
2022-12-11T19:51:19.420Z,9.32
2022-12-11T19:53:46.698Z,8.27
2022-12-11T19:56:14.561Z,8.68
2022-12-11T19:58:42.085Z,8.95
2022-12-11T20:01:12.406Z,9.75
2022-12-11T20:03:42.091Z,9.88
2022-12-11T20:06:10.087Z,9.73
2022-12-11T20:08:44.866Z,7.25
2022-12-11T20:11:17.573Z,9.25
2022-12-11T20:13:55.467Z,9.63
2022-12-11T20:16:46.395Z,10.32
2022-12-11T20:19:14.101Z,8.07
2022-12-11T20:21:48.120Z,8.35
2022-12-11T20:24:17.164Z,7.95
2022-12-11T20:26:43.834Z,7.90
2022-12-11T20:29:12.411Z,8.73
2022-12-11T20:31:42.167Z,8.27
2022-12-11T20:34:08.850Z,8.18
2022-12-11T20:36:37.898Z,8.30
2022-12-11T20:39:05.153Z,8.40
2022-12-11T20:41:33.932Z,9.40
2022-12-11T20:44:02.822Z,8.77
2022-12-11T20:46:29.376Z,8.15
2022-12-11T20:48:58.648Z,10.13
2022-12-11T20:51:26.598Z,9.45
2022-12-11T20:54:01.315Z,7.85
2022-12-11T20:56:31.809Z,8.43
2022-12-11T20:59:03.103Z,8.90
2022-12-11T21:01:38.561Z,7.13
2022-12-11T21:04:07.330Z,7.82
2022-12-11T21:06:38.752Z,7.88
2022-12-11T21:09:08.667Z,8.00
2022-12-11T21:11:35.715Z,7.93
2022-12-11T21:14:04.971Z,7.45
2022-12-11T21:16:31.865Z,7.65
2022-12-11T21:18:58.970Z,8.35
2022-12-11T21:21:26.465Z,8.90
2022-12-11T21:23:55.319Z,8.55
2022-12-11T21:26:26.799Z,8.80
2022-12-11T21:28:58.107Z,9.63
2022-12-11T21:31:25.182Z,9.30
2022-12-11T21:33:54.892Z,8.57
2022-12-11T21:36:24.454Z,8.32
2022-12-11T21:38:51.215Z,8.90
2022-12-11T21:41:24.121Z,9.50
2022-12-11T21:45:06.948Z,8.82
2022-12-11T21:46:41.906Z,8.07
2022-12-11T21:49:13.018Z,8.45
2022-12-11T21:51:47.082Z,9.68
2022-12-11T21:54:16.097Z,9.73
2022-12-11T21:56:43.276Z,9.07
2022-12-11T21:59:12.359Z,8.23
2022-12-11T22:01:45.944Z,9.00
2022-12-11T22:04:15.912Z,9.05
2022-12-11T22:06:47.244Z,9.02
2022-12-11T22:09:15.402Z,8.02
2022-12-11T22:11:42.826Z,8.57
2022-12-11T22:14:14.550Z,9.20
2022-12-11T22:16:41.562Z,8.95
2022-12-11T22:19:08.267Z,9.23
2022-12-11T22:21:38.397Z,9.25
2022-12-11T22:24:05.169Z,8.53
2022-12-11T22:26:35.174Z,8.80
2022-12-11T22:29:04.129Z,10.52
2022-12-11T22:31:31.015Z,9.07
2022-12-11T22:33:57.582Z,8.30
2022-12-11T22:36:25.448Z,6.90
2022-12-11T22:38:52.915Z,8.75
2022-12-11T22:41:25.075Z,7.47
2022-12-11T22:43:52.291Z,7.53
2022-12-11T22:46:21.503Z,8.38
2022-12-11T22:48:50.752Z,7.50
2022-12-11T22:51:18.155Z,7.85
2022-12-11T22:53:46.923Z,7.65
2022-12-11T22:56:14.174Z,8.80
2022-12-11T22:58:44.073Z,7.90
2022-12-11T23:01:19.698Z,8.37
2022-12-11T23:03:49.296Z,8.00
2022-12-11T23:06:21.364Z,8.60
2022-12-11T23:08:48.067Z,8.45
2022-12-11T23:11:26.552Z,9.35
2022-12-11T23:13:56.356Z,8.63
2022-12-11T23:16:27.254Z,9.18
2022-12-11T23:18:58.211Z,8.65
2022-12-11T23:21:28.842Z,8.93
2022-12-11T23:24:00.623Z,10.18
2022-12-11T23:26:30.530Z,10.27
2022-12-11T23:29:00.167Z,9.65
2022-12-11T23:31:27.473Z,8.93
2022-12-11T23:33:56.793Z,8.50
2022-12-11T23:36:27.681Z,8.77
2022-12-11T23:38:55.140Z,8.70
2022-12-11T23:41:22.303Z,8.60
2022-12-11T23:43:51.107Z,8.70
2022-12-11T23:46:20.394Z,8.85
2022-12-11T23:48:49.274Z,9.40
2022-12-11T23:51:20.843Z,9.57
2022-12-11T23:53:47.912Z,9.88
2022-12-11T23:56:20.448Z,8.50
2022-12-11T23:58:47.229Z,8.25
